Pemaquid Point Lighthouse, ME

43° 50' 13"N, 69° 30' 22"W, Elevation 40 ft.
Eastern Time

Hourly observations for the last 72 hours

Date Time Temperature (°F) Humi-
dity

(%)
Wind
(mph)
Pressure Rain (in) Sun
(W/m2)
UV ET
(in)
Air Dew 6 Hour 1 Hr 3 Hr 6 Hr Day
Alt
(in)
Sea
Level

(mb)
Max Min
17 17:00 64.2 61.5 91 ESE 6 G 9 30.05 1017.5 0.00 100 0.7 0.055
17 16:00 65.2 62.2 90 ESE 7 G 9 30.07 1018.3 0.00 174 1.3 0.051
17 15:00 64.7 61.4 89 ESE 9 G 12 30.08 1018.7 0.00 160 1.5 0.044
17 14:00 64.1 61.1 65.6 61.8 90 ESE 7 G 10 30.08 1018.6 0.00 345 3.1 0.037
17 13:00 65.0 62.3 91 ESE 8 G 13 30.08 1018.8 0.00 338 3.4 0.029
17 12:00 64.2 61.5 91 NE 4 G 8 30.09 1018.9 0.00 336 3.1 0.021
17 11:00 63.6 60.9 91 NE 8 G 10 30.09 1018.9 0.00 383 3.3 0.012
17 10:00 64.1 62.3 94 ESE 7 G 9 30.09 1019.0 0.00 323 2.5 0.007
17 09:00 62.7 61.2 95 E 9 G 10 30.08 1018.7 0.00 218 1.5 0.003
17 08:00 61.8 60.4 62.1 61.6 95 ESE 8 G 10 30.08 1018.8 0.00 67 0.6 0.001
17 07:00 61.9 60.5 95 E 9 G 11 30.08 1018.7 0.00 53 0.0 0.000
17 06:00 61.7 60.3 95 ESE 10 G 12 30.08 1018.6 0.00 11 0.0 0.000
17 05:00 61.7 60.3 95 E 7 G 9 30.08 1018.8 0.00 0 0.0 0.000
17 04:00 61.7 60.3 95 E 3 G 5 30.09 1019.0 0.00 0 0.0 0.000
17 03:00 61.9 60.5 95 SE 4 G 5 30.10 1019.3 0.00 0 0.0 0.000
17 02:00 61.9 60.5 62.4 61.7 95 SSE 5 G 8 30.09 1019.0 0.00 0 0.0 0.000
17 01:00 62.2 60.8 95 SE 5 G 6 30.09 1018.9 0.00 0 0.0 0.000
17 00:00 62.1 60.4 94 S 5 G 6 30.09 1019.1 0.01 0 0.0 0.122
16 23:00 62.0 60.3 94 S 3 G 5 30.09 1019.0 0.01 0 0.0 0.122
16 22:00 61.9 59.9 93 SE 5 G 8 30.08 1018.6 0.01 0 0.0 0.122
16 21:00 62.1 59.7 92 SSE 6 G 9 30.08 1018.5 0.01 0 0.0 0.121
16 20:00 62.1 60.1 69.4 62.1 93 SSE 4 G 5 30.07 1018.3 0.01 0 0.0 0.121
16 19:00 62.7 60.3 92 SSE 3 G 4 30.07 1018.3 0.01 19 0.0 0.120
16 18:00 63.3 60.9 92 SSE 3 G 5 30.07 1018.4 0.01 84 0.0 0.117
16 17:00 64.8 61.2 88 E 2 G 3 30.07 1018.3 0.01 95 0.9 0.107
16 16:00 65.9 62.6 89 E 3 G 4 30.07 1018.3 0.01 411 2.3 0.094
16 15:00 67.0 62.3 85 E 5 G 7 30.08 1018.7 0.01 784 4.5 0.075
16 14:00 65.2 60.6 65.4 61.7 85 ENE 7 G 10 30.08 1018.7 0.01 0.01 766 5.5 0.057
16 13:00 65.1 61.1 87 ENE 9 G 10 30.09 1019.0 0.01 770 6.0 0.039
16 12:00 64.4 60.8 88 ENE 9 G 12 30.09 1019.1 0.01 830 5.9 0.021
16 11:00 64.0 61.0 90 E 14 G 16 30.08 1018.7 0.01 0.01 795 5.1 0.008
16 10:00 62.4 60.7 94 ENE 11 G 12 30.09 1019.1 0.01 172 1.5 0.004
16 09:00 62.2 60.5 94 NE 7 G 9 30.09 1019.1 0.01 0.01 116 0.9 0.002
16 08:00 61.8 60.1 62.1 60.8 94 NE 4 G 6 30.09 1019.0 0.00 30 0.0 0.001
16 07:00 61.4 59.7 94 NW 2 G 7 30.08 1018.7 0.00 18 0.0 0.000
16 06:00 60.9 59.2 94 NE 2 G 3 30.06 1018.0 0.00 0 0.0 0.000
16 05:00 61.0 59.3 94 NNE 4 G 7 30.04 1017.4 0.00 0 0.0 0.000
16 04:00 60.9 58.9 93 NNE 5 G 7 30.04 1017.3 0.00 0 0.0 0.000
16 03:00 60.9 58.9 93 NE 5 G 7 30.05 1017.5 0.00 0 0.0 0.000
16 02:00 60.9 58.6 64.7 59.8 92 NE 5 G 7 30.06 1017.9 0.00 0 0.0 0.000
16 01:00 59.9 57.9 93 W 2 G 3 30.07 1018.3 0.00 0 0.0 0.000
16 00:00 60.0 57.7 92 W 1 G 2 30.06 1017.8 0.00 0 0.0 0.149
15 23:00 60.5 57.9 91 W 0 G 2 30.05 1017.7 0.00 0 0.0 0.149
15 22:00 61.4 58.4 90 W 1 G 2 30.06 1017.9 0.00 0 0.0 0.149
15 21:00 62.3 58.7 88 W 2 G 3 30.06 1018.0 0.00 0 0.0 0.148
15 20:00 64.7 60.4 73.2 64.7 86 SSW 3 G 5 30.05 1017.5 0.00 0 0.0 0.147
15 19:00 67.4 61.4 81 S 2 G 4 30.02 1016.8 0.00 84 0.0 0.142
15 18:00 68.9 62.8 81 SW 2 G 4 30.02 1016.6 0.00 297 0.7 0.133
15 17:00 70.2 64.1 81 SW 4 G 8 30.03 1017.1 0.00 492 1.6 0.119
15 16:00 70.2 63.4 79 SSE 2 G 5 30.02 1016.6 0.00 666 3.0 0.101
15 15:00 71.9 65.0 79 SSE 6 G 9 30.02 1016.8 0.00 807 4.6 0.080
15 14:00 73.2 65.2 74.6 64.2 76 SSE 5 G 8 30.03 1016.9 0.00 895 5.9 0.057
15 13:00 74.0 66.3 77 SSE 4 G 5 30.04 1017.2 0.00 881 6.4 0.037
15 12:00 73.5 59.7 62 E 1 G 3 30.05 1017.5 0.00 401 3.7 0.023
15 11:00 70.8 59.7 68 NE 3 G 8 30.05 1017.5 0.00 411 3.4 0.012
15 10:00 67.8 60.7 78 NE 5 G 9 30.03 1017.1 0.00 357 2.7 0.007
15 09:00 66.5 60.8 82 ENE 4 G 7 30.02 1016.6 0.00 58 1.6 0.004
15 08:00 64.2 58.9 64.2 59.4 83 N 1 G 5 30.01 1016.3 0.00 114 0.9 0.002
15 07:00 62.4 58.2 86 NNW 4 G 8 30.00 1015.9 0.00 63 0.0 0.001
15 06:00 59.7 57.7 93 NW 5 G 9 29.99 1015.5 0.00 12 0.0 0.001
15 05:00 60.1 58.7 95 NW 5 G 7 29.98 1015.2 0.00 0 0.0 0.001
15 04:00 60.2 58.5 94 WNW 4 G 7 29.97 1014.8 0.00 0 0.0 0.001
15 03:00 61.0 59.0 93 N 0 G 2 29.96 1014.7 0.00 0 0.0 0.001
15 02:00 61.3 59.3 63.1 60.0 93 NW 6 G 9 29.95 1014.3 0.00 0 0.0 0.001
15 01:00 61.3 59.3 93 WNW 7 G 9 29.95 1014.4 0.00 0 0.0 0.000
15 00:00 61.3 59.3 93 WNW 5 G 11 29.94 1014.0 0.00 0 0.0 0.144
14 23:00 61.0 58.7 92 W 4 G 6 29.93 1013.6 0.00 0 0.0 0.144
14 22:00 60.1 57.5 91 SSW 2 G 3 29.92 1013.1 0.00 0 0.0 0.144
14 21:00 61.8 58.8 90 SSW 0 G 2 29.91 1012.9 0.00 0 0.0 0.144
14 20:00 63.1 59.8 69.4 63.1 89 SSW 2 G 3 29.90 1012.5 0.00 0 0.0 0.143
14 19:00 65.1 60.8 86 SSW 2 G 3 29.89 1012.3 0.00 86 0.0 0.139
14 18:00 65.0 61.0 87 S 2 G 4 29.88 1011.9 0.00 308 0.7 0.130

Data generated by WxSolution Version 1.9.1.5, Build 2018.05.20.